Purdy, Washington
Current Conditions -  °F | °C
As of 7:53 PM on Wednesday 22 Oct 2014 (Local Time) from KTIW Reporting Station
Light Rain Light Rain  
Wind Chill: 55°   Ceiling: 7500
Heat Index: 55°   Visibility: 10mi
Dew Point: 52°   Wind: 10mph
Humidity: 89%   Direction: 170°S
Pressure: 29.58"   Gusts: NA
Location:  47.2986°N, 122.616°W
Report Text: KTIW 230253Z 17009KT 10SM -RA FEW046 SCT055 OVC075 13/11 A2958 RMK AO2 RAE32B49 SLP015 P0001 60007 T01280111 55009
Loading
Personal Weather Stations






























Interactive Weather Map
Tropical Storm Tracking
New forecast layout! Learn more

10-Day Weather Forecast

Advertisements
Track Severe Weather on mobile